createdAt,value
2022-10-31T00:01:26.587Z,24.92
2022-10-31T00:03:54.643Z,23.02
2022-10-31T00:06:22.997Z,22.80
2022-10-31T00:08:56.882Z,22.25
2022-10-31T00:11:24.655Z,20.50
2022-10-31T00:13:52.320Z,19.52
2022-10-31T00:16:24.989Z,20.95
2022-10-31T00:18:56.080Z,21.40
2022-10-31T00:21:23.722Z,19.92
2022-10-31T00:23:51.212Z,19.38
2022-10-31T00:26:18.856Z,21.13
2022-10-31T00:28:46.509Z,23.73
2022-10-31T00:31:14.421Z,21.20
2022-10-31T00:33:42.578Z,20.60
2022-10-31T00:36:16.870Z,21.13
2022-10-31T00:38:45.910Z,20.27
2022-10-31T00:41:15.733Z,21.90
2022-10-31T00:43:43.947Z,21.50
2022-10-31T00:46:12.297Z,22.20
2022-10-31T00:48:40.067Z,23.77
2022-10-31T00:51:08.310Z,21.67
2022-10-31T00:53:36.057Z,20.88
2022-10-31T00:56:04.357Z,22.38
2022-10-31T00:58:31.712Z,25.25
2022-10-31T01:00:58.894Z,21.52
2022-10-31T01:03:31.848Z,24.75
2022-10-31T01:06:07.241Z,23.48
2022-10-31T01:08:36.239Z,23.67
2022-10-31T01:11:11.458Z,23.70
2022-10-31T01:13:41.524Z,24.13
2022-10-31T01:16:12.345Z,24.15
2022-10-31T01:18:40.100Z,25.80
2022-10-31T01:21:17.806Z,26.42
2022-10-31T01:23:45.706Z,27.38
2022-10-31T01:26:18.266Z,26.25
2022-10-31T01:28:51.017Z,26.30
2022-10-31T01:31:20.140Z,26.65
2022-10-31T01:33:48.059Z,26.90
2022-10-31T01:36:17.080Z,26.25
2022-10-31T01:38:44.904Z,25.88
2022-10-31T01:41:13.469Z,28.02
2022-10-31T01:43:48.844Z,29.20
2022-10-31T01:46:23.388Z,28.77
2022-10-31T01:48:53.966Z,29.80
2022-10-31T01:51:26.269Z,26.95
2022-10-31T01:53:58.163Z,27.33
2022-10-31T01:56:26.224Z,26.77
2022-10-31T01:58:55.878Z,26.92
2022-10-31T02:01:23.087Z,27.55
2022-10-31T02:03:50.798Z,31.05
2022-10-31T02:06:32.180Z,31.25
2022-10-31T02:09:01.701Z,28.75
2022-10-31T02:11:30.537Z,28.00
2022-10-31T02:14:01.514Z,32.90
2022-10-31T02:16:28.710Z,34.28
2022-10-31T02:18:57.537Z,34.95
2022-10-31T02:21:39.045Z,35.35
2022-10-31T02:24:35.221Z,36.78
2022-10-31T02:27:31.689Z,35.38
2022-10-31T02:30:19.746Z,37.15
2022-10-31T02:32:49.575Z,31.63
2022-10-31T02:38:05.073Z,32.72
2022-10-31T02:40:46.599Z,35.72
2022-10-31T02:43:45.963Z,32.97
2022-10-31T02:46:29.044Z,32.75
2022-10-31T02:49:02.411Z,31.60
2022-10-31T02:51:30.467Z,35.78
2022-10-31T02:53:57.670Z,37.58
2022-10-31T02:56:25.069Z,38.97
2022-10-31T02:59:04.821Z,39.33
2022-10-31T03:04:21.888Z,36.20
2022-10-31T03:07:07.898Z,37.35
2022-10-31T03:09:51.435Z,38.58
2022-10-31T03:12:32.164Z,38.83
2022-10-31T03:15:05.392Z,38.40
2022-10-31T03:17:42.990Z,35.92
2022-10-31T03:20:11.883Z,37.30
2022-10-31T03:22:41.793Z,38.05
2022-10-31T03:25:10.710Z,37.67
2022-10-31T03:27:41.342Z,38.47
2022-10-31T03:30:09.311Z,39.30
2022-10-31T03:32:55.118Z,39.47
2022-10-31T03:35:26.854Z,38.55
2022-10-31T03:37:56.192Z,36.75
2022-10-31T03:40:26.086Z,35.57
2022-10-31T03:43:08.712Z,36.95
2022-10-31T03:45:43.289Z,36.75
2022-10-31T03:48:11.281Z,34.70
2022-10-31T03:50:46.849Z,35.95
2022-10-31T03:53:26.181Z,36.03
2022-10-31T03:56:12.414Z,35.10
2022-10-31T03:58:48.076Z,34.63
2022-10-31T04:01:19.949Z,40.70
2022-10-31T04:03:49.348Z,37.25
2022-10-31T04:06:19.810Z,37.78
2022-10-31T04:08:54.893Z,37.50
2022-10-31T04:11:26.104Z,37.75
2022-10-31T04:14:16.318Z,34.63
2022-10-31T04:16:45.146Z,37.70
2022-10-31T04:19:13.630Z,37.08
2022-10-31T04:21:44.338Z,39.42
2022-10-31T04:24:12.234Z,38.25
2022-10-31T04:26:40.225Z,36.70
2022-10-31T04:29:08.308Z,35.85
2022-10-31T04:31:35.412Z,34.88
2022-10-31T04:34:03.271Z,33.90
2022-10-31T04:36:30.485Z,35.83
2022-10-31T04:38:58.801Z,39.95
2022-10-31T04:41:39.932Z,40.25
2022-10-31T04:44:17.282Z,39.63
2022-10-31T04:46:50.153Z,40.55
2022-10-31T04:49:17.831Z,36.72
2022-10-31T04:51:45.119Z,38.25
2022-10-31T04:54:14.997Z,36.75
2022-10-31T04:57:05.396Z,46.40
2022-10-31T04:59:32.902Z,38.28
2022-10-31T05:02:00.939Z,35.53
2022-10-31T05:04:44.772Z,35.63
2022-10-31T05:07:11.859Z,34.28
2022-10-31T05:09:39.341Z,34.13
2022-10-31T05:12:06.625Z,35.58
2022-10-31T05:15:03.894Z,36.88
2022-10-31T05:20:42.532Z,49.03
2022-10-31T05:23:38.581Z,37.30
2022-10-31T05:26:08.617Z,34.55
2022-10-31T05:28:35.723Z,37.63
2022-10-31T05:31:04.515Z,39.78
2022-10-31T05:33:32.389Z,37.25
2022-10-31T05:36:06.007Z,38.33
2022-10-31T05:38:41.860Z,39.85
2022-10-31T05:41:17.950Z,44.25
2022-10-31T05:43:47.391Z,36.03
2022-10-31T05:46:16.346Z,36.50
2022-10-31T05:49:21.627Z,37.80
2022-10-31T05:52:07.745Z,42.28
2022-10-31T05:54:41.373Z,38.17
2022-10-31T05:57:09.744Z,45.22
2022-10-31T05:59:37.115Z,37.13
2022-10-31T06:02:04.513Z,45.55
2022-10-31T06:04:50.207Z,45.33
2022-10-31T06:07:18.210Z,52.95
2022-10-31T06:09:45.565Z,49.67
2022-10-31T06:12:13.024Z,45.88
2022-10-31T06:15:00.290Z,48.05
2022-10-31T06:17:28.278Z,51.45
2022-10-31T06:20:21.504Z,46.75
2022-10-31T06:22:58.073Z,45.38
2022-10-31T06:25:26.097Z,43.92
2022-10-31T06:27:54.690Z,45.10
2022-10-31T06:30:25.212Z,44.55
2022-10-31T06:32:52.930Z,63.53
2022-10-31T06:35:21.110Z,47.47
2022-10-31T06:37:53.180Z,49.17
2022-10-31T06:40:29.608Z,45.05
2022-10-31T06:43:19.331Z,47.08
2022-10-31T06:45:46.498Z,48.22
2022-10-31T06:48:30.018Z,46.90
2022-10-31T06:51:23.360Z,46.22
2022-10-31T06:53:52.149Z,48.40
2022-10-31T06:56:19.838Z,47.47
2022-10-31T06:58:56.168Z,51.20
2022-10-31T07:01:43.520Z,47.22
2022-10-31T07:04:11.683Z,46.88
2022-10-31T07:06:39.368Z,44.33
2022-10-31T07:09:07.249Z,60.08
2022-10-31T07:11:34.593Z,53.95
2022-10-31T07:14:02.459Z,50.65
2022-10-31T07:16:29.728Z,55.35
2022-10-31T07:18:57.094Z,57.00
2022-10-31T07:21:24.431Z,55.42
2022-10-31T07:23:52.198Z,52.78
2022-10-31T07:26:51.452Z,49.70
2022-10-31T07:29:18.812Z,53.38
2022-10-31T07:31:47.294Z,45.78
2022-10-31T07:34:21.775Z,43.75
2022-10-31T07:37:17.074Z,42.35
2022-10-31T07:39:44.549Z,44.08
2022-10-31T07:42:11.746Z,43.13
2022-10-31T07:44:44.495Z,44.85
2022-10-31T07:47:30.972Z,45.60
2022-10-31T07:50:30.513Z,49.15
2022-10-31T07:58:28.287Z,40.05
2022-10-31T08:01:03.756Z,45.47
2022-10-31T08:04:01.662Z,52.58
2022-10-31T08:10:46.462Z,41.03
2022-10-31T08:13:36.030Z,40.90
2022-10-31T08:16:05.425Z,41.72
2022-10-31T08:18:39.161Z,41.72
2022-10-31T08:21:46.483Z,42.05
2022-10-31T08:25:17.160Z,40.90
2022-10-31T08:29:04.430Z,42.40
2022-10-31T08:31:53.230Z,39.00
2022-10-31T08:35:47.894Z,42.58
2022-10-31T08:39:02.087Z,40.88
2022-10-31T08:41:31.532Z,41.33
2022-10-31T08:44:00.743Z,40.08
2022-10-31T08:46:27.953Z,39.72
2022-10-31T08:48:55.803Z,41.97
2022-10-31T08:51:23.945Z,43.30
2022-10-31T08:53:54.627Z,41.40
2022-10-31T08:56:33.734Z,38.78
2022-10-31T08:59:04.323Z,41.05
2022-10-31T09:01:47.911Z,42.80
2022-10-31T09:04:15.669Z,41.05
2022-10-31T09:06:55.456Z,42.40
2022-10-31T09:09:30.875Z,41.55
2022-10-31T09:11:58.362Z,41.83
2022-10-31T09:14:44.287Z,41.00
2022-10-31T09:17:40.547Z,41.97
2022-10-31T09:20:30.346Z,43.75
2022-10-31T09:23:26.143Z,44.60
2022-10-31T09:25:55.453Z,43.17
2022-10-31T09:28:33.264Z,44.65
2022-10-31T09:31:12.212Z,46.42
2022-10-31T09:33:57.823Z,48.00
2022-10-31T09:36:47.080Z,43.47
2022-10-31T09:39:23.374Z,47.28
2022-10-31T09:42:23.325Z,44.65
2022-10-31T09:45:31.982Z,43.28
2022-10-31T09:48:20.878Z,44.13
2022-10-31T09:51:05.583Z,41.33
2022-10-31T09:53:48.002Z,40.90
2022-10-31T09:56:22.366Z,43.67
2022-10-31T09:58:56.982Z,42.97
2022-10-31T10:01:32.808Z,46.47
2022-10-31T10:04:13.747Z,42.83
2022-10-31T10:06:59.434Z,47.30
2022-10-31T10:10:02.011Z,44.63
2022-10-31T10:13:23.877Z,43.90
2022-10-31T10:16:18.907Z,44.20
2022-10-31T10:19:15.326Z,44.05
2022-10-31T10:22:02.008Z,39.83
2022-10-31T10:24:29.240Z,47.92
2022-10-31T10:26:59.681Z,43.08
2022-10-31T10:29:36.002Z,44.42
2022-10-31T10:32:20.501Z,45.65
2022-10-31T10:34:57.673Z,48.75
2022-10-31T10:38:01.129Z,40.97
2022-10-31T10:41:08.567Z,47.75
2022-10-31T10:44:57.356Z,44.85
2022-10-31T10:48:45.540Z,44.88
2022-10-31T10:51:58.237Z,40.58
2022-10-31T10:55:11.753Z,41.80
2022-10-31T10:59:05.647Z,42.28
2022-10-31T11:06:00.882Z,65.18
2022-10-31T11:08:45.358Z,43.72
2022-10-31T11:14:22.977Z,34.40
2022-10-31T11:21:42.646Z,35.30
2022-10-31T11:24:37.961Z,32.97
2022-10-31T11:27:21.747Z,31.88
2022-10-31T11:32:39.574Z,33.95
2022-10-31T11:35:30.305Z,32.53
2022-10-31T11:38:09.397Z,31.95
2022-10-31T11:40:59.908Z,30.90
2022-10-31T11:43:47.483Z,31.92
2022-10-31T11:47:04.999Z,30.15
2022-10-31T11:52:46.297Z,30.25
2022-10-31T11:59:31.668Z,29.05
2022-10-31T12:02:31.169Z,29.85
2022-10-31T12:11:43.049Z,32.50
2022-10-31T12:14:51.991Z,32.28
2022-10-31T12:18:32.507Z,31.63
2022-10-31T12:24:26.148Z,32.47
2022-10-31T12:27:35.815Z,55.20
2022-10-31T12:31:23.014Z,81.15
2022-10-31T12:33:57.932Z,58.63
2022-10-31T12:36:31.753Z,34.58
2022-10-31T12:40:11.174Z,31.40
2022-10-31T12:43:01.344Z,30.52
2022-10-31T12:46:01.595Z,31.50
2022-10-31T12:48:37.894Z,28.70
2022-10-31T12:51:21.915Z,28.85
2022-10-31T12:55:08.961Z,28.73
2022-10-31T12:57:59.131Z,27.52
2022-10-31T13:00:38.513Z,28.00
2022-10-31T13:03:52.972Z,34.20
2022-10-31T13:07:18.250Z,30.38
2022-10-31T13:10:56.849Z,27.83
2022-10-31T13:18:47.328Z,29.38
2022-10-31T13:22:07.155Z,29.75
2022-10-31T13:29:46.360Z,33.22
2022-10-31T13:32:50.448Z,30.98
2022-10-31T13:36:41.715Z,35.22
2022-10-31T13:40:08.810Z,32.70
2022-10-31T13:43:17.593Z,35.17
2022-10-31T13:45:54.159Z,31.65
2022-10-31T13:48:37.126Z,31.17
2022-10-31T13:51:08.617Z,28.52
2022-10-31T13:54:03.028Z,35.42
2022-10-31T13:56:36.902Z,28.23
2022-10-31T13:59:10.076Z,28.42
2022-10-31T14:01:46.969Z,30.35
2022-10-31T14:04:24.884Z,40.13
2022-10-31T14:06:58.778Z,46.47
2022-10-31T14:09:38.800Z,50.05
2022-10-31T14:12:23.159Z,42.75
2022-10-31T14:14:53.807Z,35.97
2022-10-31T14:17:25.924Z,31.52
2022-10-31T14:20:11.430Z,27.33
2022-10-31T14:22:42.957Z,28.40
2022-10-31T14:25:29.600Z,30.13
2022-10-31T14:27:58.815Z,30.25
2022-10-31T14:30:28.862Z,30.77
2022-10-31T14:33:02.392Z,31.80
2022-10-31T14:35:58.249Z,36.75
2022-10-31T14:38:31.380Z,28.85
2022-10-31T14:41:18.797Z,27.80
2022-10-31T14:43:48.854Z,35.33
2022-10-31T14:46:37.095Z,30.67
2022-10-31T14:49:15.654Z,29.40
2022-10-31T14:51:48.836Z,33.10
2022-10-31T14:54:45.252Z,31.25
2022-10-31T14:57:21.281Z,30.08
2022-10-31T14:59:52.785Z,34.53
2022-10-31T15:02:49.150Z,40.55
2022-10-31T15:05:17.798Z,40.95
2022-10-31T15:08:14.847Z,151.05
2022-10-31T15:10:46.918Z,52.63
2022-10-31T15:13:20.481Z,49.58
2022-10-31T15:15:52.327Z,36.75
2022-10-31T15:18:29.821Z,35.83
2022-10-31T15:20:58.019Z,37.30
2022-10-31T15:23:28.488Z,36.10
2022-10-31T15:26:06.535Z,35.45
2022-10-31T15:28:33.687Z,34.30
2022-10-31T15:31:03.307Z,33.00
2022-10-31T15:33:38.191Z,33.08
2022-10-31T15:36:07.520Z,29.67
2022-10-31T15:38:35.134Z,32.17
2022-10-31T15:41:04.466Z,30.38
2022-10-31T15:43:40.083Z,31.65
2022-10-31T15:46:11.167Z,32.90
2022-10-31T15:48:39.484Z,38.22
2022-10-31T15:51:07.557Z,39.45
2022-10-31T15:53:44.225Z,41.97
2022-10-31T15:56:20.373Z,49.10
2022-10-31T15:58:51.547Z,46.85
2022-10-31T16:01:23.283Z,46.13
2022-10-31T16:04:13.520Z,36.60
2022-10-31T16:06:41.199Z,25.90
2022-10-31T16:09:25.246Z,26.80
2022-10-31T16:11:53.077Z,25.35
2022-10-31T16:14:26.027Z,23.73
2022-10-31T16:16:56.790Z,23.80
2022-10-31T16:19:36.387Z,29.13
2022-10-31T16:22:11.493Z,30.88
2022-10-31T16:24:51.122Z,34.20
2022-10-31T16:29:48.822Z,28.35
2022-10-31T16:32:35.422Z,29.85
2022-10-31T16:35:50.037Z,30.05
2022-10-31T16:38:19.916Z,28.30
2022-10-31T16:40:48.349Z,40.28
2022-10-31T16:43:18.906Z,40.90
2022-10-31T16:45:49.251Z,46.75
2022-10-31T16:48:23.207Z,42.88
2022-10-31T16:50:54.378Z,47.17
2022-10-31T16:53:33.767Z,43.83
2022-10-31T16:57:00.089Z,46.33
2022-10-31T16:59:41.599Z,30.58
2022-10-31T17:02:17.634Z,32.92
2022-10-31T17:04:47.660Z,84.07
2022-10-31T17:07:17.737Z,83.80
2022-10-31T17:09:46.307Z,58.60
2022-10-31T17:12:20.198Z,43.10
2022-10-31T17:14:51.824Z,45.78
2022-10-31T17:17:19.727Z,33.13
2022-10-31T17:19:47.828Z,31.83
2022-10-31T17:22:16.089Z,35.60
2022-10-31T17:24:44.065Z,33.08
2022-10-31T17:27:15.840Z,30.67
2022-10-31T17:29:43.999Z,26.05
2022-10-31T17:32:12.017Z,24.55
2022-10-31T17:34:40.278Z,25.90
2022-10-31T17:37:10.885Z,50.58
2022-10-31T17:39:38.366Z,63.30
2022-10-31T17:42:05.605Z,39.70
2022-10-31T17:44:33.070Z,35.83
2022-10-31T17:47:00.228Z,43.03
2022-10-31T17:49:27.664Z,44.17
2022-10-31T17:51:54.989Z,38.10
2022-10-31T17:54:22.939Z,46.17
2022-10-31T17:56:50.197Z,54.60
2022-10-31T17:59:17.774Z,40.47
2022-10-31T18:01:45.160Z,43.75
2022-10-31T18:04:12.853Z,62.67
2022-10-31T18:06:40.329Z,59.38
2022-10-31T18:09:08.232Z,46.47
2022-10-31T18:11:35.562Z,34.45
2022-10-31T18:14:03.039Z,37.35
2022-10-31T18:16:30.508Z,41.97
2022-10-31T18:19:02.086Z,157.98
2022-10-31T18:21:29.554Z,76.63
2022-10-31T18:24:00.339Z,39.45
2022-10-31T18:26:28.628Z,28.95
2022-10-31T18:28:56.494Z,34.53
2022-10-31T18:31:24.406Z,37.30
2022-10-31T18:33:56.339Z,33.40
2022-10-31T18:36:24.021Z,39.47
2022-10-31T18:38:51.906Z,38.38
2022-10-31T18:41:19.795Z,29.15
2022-10-31T18:43:47.426Z,37.70
2022-10-31T18:46:17.814Z,24.10
2022-10-31T18:48:46.529Z,30.27
2022-10-31T18:51:18.502Z,29.65
2022-10-31T18:53:58.019Z,32.22
2022-10-31T18:56:26.259Z,27.13
2022-10-31T18:58:54.219Z,22.23
2022-10-31T19:01:22.446Z,21.35
2022-10-31T19:03:57.696Z,22.73
2022-10-31T19:06:26.860Z,22.70
2022-10-31T19:09:03.999Z,21.08
2022-10-31T19:11:36.613Z,19.15
2022-10-31T19:14:08.900Z,17.92
2022-10-31T19:19:04.892Z,16.35
2022-10-31T19:21:36.273Z,19.23
2022-10-31T19:24:04.998Z,16.73
2022-10-31T19:26:34.465Z,17.27
2022-10-31T19:31:30.350Z,18.42
2022-10-31T19:33:58.732Z,17.67
2022-10-31T19:36:27.899Z,18.50
2022-10-31T19:38:56.375Z,17.60
2022-10-31T19:41:26.859Z,18.02
2022-10-31T19:44:01.211Z,18.27
2022-10-31T19:49:17.570Z,24.60
2022-10-31T19:51:44.922Z,30.90
2022-10-31T19:54:12.814Z,31.88
2022-10-31T19:56:40.299Z,33.47
2022-10-31T19:59:08.229Z,58.55
2022-10-31T20:01:35.690Z,45.97
2022-10-31T20:04:03.543Z,35.25
2022-10-31T20:06:34.063Z,31.35
2022-10-31T20:09:10.651Z,31.67
2022-10-31T20:11:39.153Z,35.88
2022-10-31T20:14:08.741Z,35.67
2022-10-31T20:16:36.141Z,31.88
2022-10-31T20:19:03.876Z,30.63
2022-10-31T20:21:35.452Z,32.58
2022-10-31T20:24:05.318Z,30.27
2022-10-31T20:26:33.787Z,27.45
2022-10-31T20:29:02.493Z,28.33
2022-10-31T20:31:33.408Z,25.10
2022-10-31T20:34:01.053Z,24.52
2022-10-31T20:36:31.742Z,25.08
2022-10-31T20:39:00.512Z,22.38
2022-10-31T20:41:27.710Z,24.83
2022-10-31T20:43:55.529Z,23.65
2022-10-31T20:46:25.472Z,22.23
2022-10-31T20:51:24.107Z,19.08
2022-10-31T20:53:53.370Z,19.20
2022-10-31T20:56:23.196Z,19.90
2022-10-31T20:58:51.630Z,29.55
2022-10-31T21:01:20.679Z,30.20
2022-10-31T21:03:50.029Z,19.65
2022-10-31T21:06:19.882Z,21.38
2022-10-31T21:08:47.997Z,23.75
2022-10-31T21:11:18.890Z,21.23
2022-10-31T21:13:49.259Z,20.17
2022-10-31T21:16:19.460Z,20.48
2022-10-31T21:21:19.627Z,21.48
2022-10-31T21:23:48.257Z,22.33
2022-10-31T21:26:22.744Z,20.75
2022-10-31T21:29:00.041Z,22.70
2022-10-31T21:31:28.473Z,21.13
2022-10-31T21:33:56.508Z,19.85
2022-10-31T21:36:49.263Z,19.40
2022-10-31T21:39:25.675Z,19.15
2022-10-31T21:41:53.093Z,24.35
2022-10-31T21:44:42.163Z,25.30
2022-10-31T21:48:09.516Z,30.75
2022-10-31T21:50:55.577Z,34.85
2022-10-31T21:53:41.633Z,34.72
2022-10-31T21:56:09.310Z,40.60
2022-10-31T21:58:38.583Z,45.05
2022-10-31T22:01:06.819Z,41.17
2022-10-31T22:03:39.667Z,41.25
2022-10-31T22:06:09.363Z,34.70
2022-10-31T22:08:37.317Z,36.92
2022-10-31T22:11:07.161Z,36.47
2022-10-31T22:13:36.135Z,35.60
2022-10-31T22:16:09.303Z,31.92
2022-10-31T22:18:37.892Z,29.20
2022-10-31T22:21:07.875Z,31.08
2022-10-31T22:23:36.117Z,31.10
2022-10-31T22:26:14.408Z,30.63
2022-10-31T22:28:46.553Z,30.27
2022-10-31T22:31:18.608Z,30.55
2022-10-31T22:33:46.803Z,33.35
2022-10-31T22:36:16.979Z,33.65
2022-10-31T22:38:45.359Z,33.80
2022-10-31T22:41:15.082Z,37.45
2022-10-31T22:46:14.161Z,36.60
2022-10-31T22:48:46.194Z,34.03
2022-10-31T22:51:32.169Z,34.95
2022-10-31T22:53:59.813Z,34.55
2022-10-31T22:56:33.481Z,53.67
2022-10-31T22:59:01.569Z,42.40
2022-10-31T23:01:32.180Z,39.00
2022-10-31T23:04:00.977Z,37.65
2022-10-31T23:06:33.108Z,38.20
2022-10-31T23:09:02.033Z,34.83
2022-10-31T23:11:35.584Z,39.08
2022-10-31T23:14:15.804Z,46.78
2022-10-31T23:16:48.882Z,38.03
2022-10-31T23:19:20.414Z,35.97
2022-10-31T23:22:02.367Z,37.40
2022-10-31T23:24:34.125Z,36.42
2022-10-31T23:27:21.042Z,37.03
2022-10-31T23:29:51.602Z,38.15
2022-10-31T23:32:25.813Z,38.95
2022-10-31T23:34:56.368Z,38.10
2022-10-31T23:39:52.661Z,39.45
2022-10-31T23:42:20.324Z,35.67
2022-10-31T23:44:47.984Z,39.10
2022-10-31T23:47:15.883Z,33.90
2022-10-31T23:49:43.775Z,32.88
2022-10-31T23:52:11.184Z,30.77
2022-10-31T23:54:39.227Z,29.75
2022-10-31T23:57:06.484Z,29.42
2022-10-31T23:59:33.822Z,28.15
